Port Ludlow, Washington
Current Conditions -  °F | °C
As of 8:53 PM on Wednesday 26 Nov 2014 (Local Time) from KPAE Reporting Station
Overcast Overcast  
Wind Chill: 56°   Ceiling: 3600
Heat Index: 56°   Visibility: 10mi
Dew Point: 51°   Wind: 16mph
Humidity: 84%   Direction: 200°SSW
Pressure: 29.89"   Gusts: NA
Location:  47.93°N, 122.69°W
Report Text: KPAE 270453Z 20014KT 10SM BKN036 BKN046 OVC080 13/11 A2989 RMK AO2 RAE13 SLP121 P0000 T01330106
Loading
Personal Weather Stations






























Interactive Weather Map New forecast layout! Learn more

10-Day Weather Forecast

Advertisements
Track Severe Weather on mobile